sensor_id;sensor_type;location;lat;lon;timestamp;temperature;humidity
73572;DHT22;61854;48.510;-2.770;2023-05-29T00:02:06;15.30;88.60
73572;DHT22;61854;48.510;-2.770;2023-05-29T00:04:32;15.30;88.80
73572;DHT22;61854;48.510;-2.770;2023-05-29T00:06:57;15.30;89.10
73572;DHT22;61854;48.510;-2.770;2023-05-29T00:09:23;15.30;89.50
73572;DHT22;61854;48.510;-2.770;2023-05-29T00:11:49;15.30;89.70
73572;DHT22;61854;48.510;-2.770;2023-05-29T00:14:18;15.30;90.00
73572;DHT22;61854;48.510;-2.770;2023-05-29T00:16:45;15.30;90.10
73572;DHT22;61854;48.510;-2.770;2023-05-29T00:19:12;15.30;90.30
73572;DHT22;61854;48.510;-2.770;2023-05-29T00:21:39;15.20;90.40
73572;DHT22;61854;48.510;-2.770;2023-05-29T00:24:05;15.20;90.60
73572;DHT22;61854;48.510;-2.770;2023-05-29T00:26:30;15.20;90.70
73572;DHT22;61854;48.510;-2.770;2023-05-29T00:28:56;15.20;90.80
73572;DHT22;61854;48.510;-2.770;2023-05-29T00:31:21;15.20;90.80
73572;DHT22;61854;48.510;-2.770;2023-05-29T00:33:47;15.20;91.00
73572;DHT22;61854;48.510;-2.770;2023-05-29T00:36:12;15.10;91.20
73572;DHT22;61854;48.510;-2.770;2023-05-29T00:38:38;15.10;91.40
73572;DHT22;61854;48.510;-2.770;2023-05-29T00:41:03;15.10;91.60
73572;DHT22;61854;48.510;-2.770;2023-05-29T00:43:30;15.00;91.80
73572;DHT22;61854;48.510;-2.770;2023-05-29T00:45:55;15.00;92.00
73572;DHT22;61854;48.510;-2.770;2023-05-29T00:48:21;15.00;92.10
73572;DHT22;61854;48.510;-2.770;2023-05-29T00:50:46;15.00;92.50
73572;DHT22;61854;48.510;-2.770;2023-05-29T00:53:12;15.00;92.60
73572;DHT22;61854;48.510;-2.770;2023-05-29T00:55:38;15.00;92.70
73572;DHT22;61854;48.510;-2.770;2023-05-29T00:58:04;15.00;92.80
73572;DHT22;61854;48.510;-2.770;2023-05-29T01:00:30;14.90;92.90
73572;DHT22;61854;48.510;-2.770;2023-05-29T01:02:56;14.90;93.00
73572;DHT22;61854;48.510;-2.770;2023-05-29T01:05:22;14.90;93.10
73572;DHT22;61854;48.510;-2.770;2023-05-29T01:07:47;14.90;93.20
73572;DHT22;61854;48.510;-2.770;2023-05-29T01:10:14;14.90;93.20
73572;DHT22;61854;48.510;-2.770;2023-05-29T01:17:39;14.90;93.20
73572;DHT22;61854;48.510;-2.770;2023-05-29T01:22:58;14.90;93.30
73572;DHT22;61854;48.510;-2.770;2023-05-29T01:25:35;14.90;93.30
73572;DHT22;61854;48.510;-2.770;2023-05-29T01:28:07;14.90;93.40
73572;DHT22;61854;48.510;-2.770;2023-05-29T01:30:34;14.90;93.40
73572;DHT22;61854;48.510;-2.770;2023-05-29T01:33:01;14.90;93.40
73572;DHT22;61854;48.510;-2.770;2023-05-29T01:35:27;14.90;93.50
73572;DHT22;61854;48.510;-2.770;2023-05-29T01:37:53;14.90;93.50
73572;DHT22;61854;48.510;-2.770;2023-05-29T01:40:18;14.90;93.50
73572;DHT22;61854;48.510;-2.770;2023-05-29T01:42:44;14.80;93.60
73572;DHT22;61854;48.510;-2.770;2023-05-29T01:45:10;14.90;93.70
73572;DHT22;61854;48.510;-2.770;2023-05-29T01:47:36;14.90;93.70
73572;DHT22;61854;48.510;-2.770;2023-05-29T01:50:03;14.80;93.80
73572;DHT22;61854;48.510;-2.770;2023-05-29T01:52:28;14.70;93.90
73572;DHT22;61854;48.510;-2.770;2023-05-29T01:54:54;14.80;94.10
73572;DHT22;61854;48.510;-2.770;2023-05-29T01:57:20;14.70;94.10
73572;DHT22;61854;48.510;-2.770;2023-05-29T01:59:46;14.70;94.20
73572;DHT22;61854;48.510;-2.770;2023-05-29T02:02:12;14.70;94.30
73572;DHT22;61854;48.510;-2.770;2023-05-29T02:04:37;14.70;94.30
73572;DHT22;61854;48.510;-2.770;2023-05-29T02:07:03;14.70;94.30
73572;DHT22;61854;48.510;-2.770;2023-05-29T02:09:29;14.70;94.40
73572;DHT22;61854;48.510;-2.770;2023-05-29T02:11:55;14.70;94.40
73572;DHT22;61854;48.510;-2.770;2023-05-29T02:14:21;14.60;94.50
73572;DHT22;61854;48.510;-2.770;2023-05-29T02:16:49;14.60;94.50
73572;DHT22;61854;48.510;-2.770;2023-05-29T02:19:17;14.60;94.60
73572;DHT22;61854;48.510;-2.770;2023-05-29T02:21:43;14.60;94.80
73572;DHT22;61854;48.510;-2.770;2023-05-29T02:24:09;14.50;94.90
73572;DHT22;61854;48.510;-2.770;2023-05-29T02:26:35;14.50;94.90
73572;DHT22;61854;48.510;-2.770;2023-05-29T02:29:03;14.50;95.10
73572;DHT22;61854;48.510;-2.770;2023-05-29T02:31:31;14.50;95.20
73572;DHT22;61854;48.510;-2.770;2023-05-29T02:33:56;14.40;95.40
73572;DHT22;61854;48.510;-2.770;2023-05-29T02:36:22;14.50;95.50
73572;DHT22;61854;48.510;-2.770;2023-05-29T02:38:47;14.50;95.60
73572;DHT22;61854;48.510;-2.770;2023-05-29T02:41:13;14.60;95.80
73572;DHT22;61854;48.510;-2.770;2023-05-29T02:43:38;14.60;95.80
73572;DHT22;61854;48.510;-2.770;2023-05-29T02:46:04;14.70;95.80
73572;DHT22;61854;48.510;-2.770;2023-05-29T02:48:29;14.70;95.90
73572;DHT22;61854;48.510;-2.770;2023-05-29T02:50:55;14.80;95.90
73572;DHT22;61854;48.510;-2.770;2023-05-29T02:53:21;14.80;96.00
73572;DHT22;61854;48.510;-2.770;2023-05-29T02:55:46;14.90;95.90
73572;DHT22;61854;48.510;-2.770;2023-05-29T02:58:12;15.00;95.70
73572;DHT22;61854;48.510;-2.770;2023-05-29T03:00:37;15.10;95.60
73572;DHT22;61854;48.510;-2.770;2023-05-29T03:03:03;15.10;95.60
73572;DHT22;61854;48.510;-2.770;2023-05-29T03:05:29;15.10;95.60
73572;DHT22;61854;48.510;-2.770;2023-05-29T03:07:55;15.10;95.20
73572;DHT22;61854;48.510;-2.770;2023-05-29T03:10:21;15.00;94.90
73572;DHT22;61854;48.510;-2.770;2023-05-29T03:12:47;15.10;95.10
73572;DHT22;61854;48.510;-2.770;2023-05-29T03:15:13;15.00;95.00
73572;DHT22;61854;48.510;-2.770;2023-05-29T03:17:38;15.00;95.00
73572;DHT22;61854;48.510;-2.770;2023-05-29T03:20:04;15.00;95.00
73572;DHT22;61854;48.510;-2.770;2023-05-29T03:22:36;15.10;94.80
73572;DHT22;61854;48.510;-2.770;2023-05-29T03:25:04;15.10;94.70
73572;DHT22;61854;48.510;-2.770;2023-05-29T03:27:31;15.00;94.60
73572;DHT22;61854;48.510;-2.770;2023-05-29T03:29:56;15.00;94.50
73572;DHT22;61854;48.510;-2.770;2023-05-29T03:32:23;15.00;94.50
73572;DHT22;61854;48.510;-2.770;2023-05-29T03:34:48;15.00;94.50
73572;DHT22;61854;48.510;-2.770;2023-05-29T03:37:14;15.00;94.40
73572;DHT22;61854;48.510;-2.770;2023-05-29T03:39:40;15.00;94.30
73572;DHT22;61854;48.510;-2.770;2023-05-29T03:42:05;15.00;94.30
73572;DHT22;61854;48.510;-2.770;2023-05-29T03:44:31;15.00;94.30
73572;DHT22;61854;48.510;-2.770;2023-05-29T03:46:56;14.90;94.30
73572;DHT22;61854;48.510;-2.770;2023-05-29T03:49:22;15.00;94.30
73572;DHT22;61854;48.510;-2.770;2023-05-29T03:51:47;14.90;94.40
73572;DHT22;61854;48.510;-2.770;2023-05-29T03:54:13;14.90;94.40
73572;DHT22;61854;48.510;-2.770;2023-05-29T03:56:38;14.90;94.50
73572;DHT22;61854;48.510;-2.770;2023-05-29T03:59:04;14.90;94.60
73572;DHT22;61854;48.510;-2.770;2023-05-29T04:01:29;15.00;94.50
73572;DHT22;61854;48.510;-2.770;2023-05-29T04:03:55;14.90;94.10
73572;DHT22;61854;48.510;-2.770;2023-05-29T04:06:20;14.90;94.00
73572;DHT22;61854;48.510;-2.770;2023-05-29T04:08:46;14.90;94.10
73572;DHT22;61854;48.510;-2.770;2023-05-29T04:11:12;14.90;94.20
73572;DHT22;61854;48.510;-2.770;2023-05-29T04:13:38;15.00;94.30
73572;DHT22;61854;48.510;-2.770;2023-05-29T04:16:04;15.00;94.30
73572;DHT22;61854;48.510;-2.770;2023-05-29T04:18:30;15.00;94.40
73572;DHT22;61854;48.510;-2.770;2023-05-29T04:20:55;15.00;94.40
73572;DHT22;61854;48.510;-2.770;2023-05-29T04:23:21;15.00;94.30
73572;DHT22;61854;48.510;-2.770;2023-05-29T04:25:46;15.00;94.40
73572;DHT22;61854;48.510;-2.770;2023-05-29T04:28:12;14.90;94.40
73572;DHT22;61854;48.510;-2.770;2023-05-29T04:30:37;15.00;94.50
73572;DHT22;61854;48.510;-2.770;2023-05-29T04:33:04;15.00;94.40
73572;DHT22;61854;48.510;-2.770;2023-05-29T04:35:30;15.00;94.30
73572;DHT22;61854;48.510;-2.770;2023-05-29T04:37:55;15.00;94.30
73572;DHT22;61854;48.510;-2.770;2023-05-29T04:40:21;15.00;94.10
73572;DHT22;61854;48.510;-2.770;2023-05-29T04:42:47;15.00;93.90
73572;DHT22;61854;48.510;-2.770;2023-05-29T04:45:13;14.90;94.00
73572;DHT22;61854;48.510;-2.770;2023-05-29T04:47:38;15.00;94.00
73572;DHT22;61854;48.510;-2.770;2023-05-29T04:50:11;15.00;94.00
73572;DHT22;61854;48.510;-2.770;2023-05-29T04:52:37;15.00;94.00
73572;DHT22;61854;48.510;-2.770;2023-05-29T04:55:03;15.00;93.80
73572;DHT22;61854;48.510;-2.770;2023-05-29T04:57:28;15.00;93.80
73572;DHT22;61854;48.510;-2.770;2023-05-29T04:59:54;15.00;93.90
73572;DHT22;61854;48.510;-2.770;2023-05-29T05:02:20;15.10;93.80
73572;DHT22;61854;48.510;-2.770;2023-05-29T05:04:45;15.00;93.60
73572;DHT22;61854;48.510;-2.770;2023-05-29T05:07:11;15.00;93.70
73572;DHT22;61854;48.510;-2.770;2023-05-29T05:09:37;15.00;93.70
73572;DHT22;61854;48.510;-2.770;2023-05-29T05:12:02;15.00;93.80
73572;DHT22;61854;48.510;-2.770;2023-05-29T05:14:28;15.00;93.60
73572;DHT22;61854;48.510;-2.770;2023-05-29T05:16:53;15.00;93.60
73572;DHT22;61854;48.510;-2.770;2023-05-29T05:19:20;15.00;93.70
73572;DHT22;61854;48.510;-2.770;2023-05-29T05:21:45;15.00;93.40
73572;DHT22;61854;48.510;-2.770;2023-05-29T05:24:11;15.00;93.30
73572;DHT22;61854;48.510;-2.770;2023-05-29T05:26:37;14.90;93.30
73572;DHT22;61854;48.510;-2.770;2023-05-29T05:29:02;14.90;93.30
73572;DHT22;61854;48.510;-2.770;2023-05-29T05:31:28;14.90;93.30
73572;DHT22;61854;48.510;-2.770;2023-05-29T05:33:53;14.90;93.40
73572;DHT22;61854;48.510;-2.770;2023-05-29T05:36:19;14.80;93.50
73572;DHT22;61854;48.510;-2.770;2023-05-29T05:38:44;14.90;93.40
73572;DHT22;61854;48.510;-2.770;2023-05-29T05:41:11;14.80;93.30
73572;DHT22;61854;48.510;-2.770;2023-05-29T05:43:36;14.80;93.20
73572;DHT22;61854;48.510;-2.770;2023-05-29T05:46:02;14.80;93.20
73572;DHT22;61854;48.510;-2.770;2023-05-29T05:48:27;14.80;93.30
73572;DHT22;61854;48.510;-2.770;2023-05-29T05:50:53;14.80;93.30
73572;DHT22;61854;48.510;-2.770;2023-05-29T05:53:18;14.80;93.20
73572;DHT22;61854;48.510;-2.770;2023-05-29T05:55:44;14.80;93.40
73572;DHT22;61854;48.510;-2.770;2023-05-29T05:58:09;14.80;93.40
73572;DHT22;61854;48.510;-2.770;2023-05-29T06:00:35;14.80;93.40
73572;DHT22;61854;48.510;-2.770;2023-05-29T06:03:01;14.90;93.40
73572;DHT22;61854;48.510;-2.770;2023-05-29T06:05:28;14.90;93.50
73572;DHT22;61854;48.510;-2.770;2023-05-29T06:07:54;15.00;93.10
73572;DHT22;61854;48.510;-2.770;2023-05-29T06:10:19;15.00;93.10
73572;DHT22;61854;48.510;-2.770;2023-05-29T06:12:45;15.00;93.10
73572;DHT22;61854;48.510;-2.770;2023-05-29T06:15:10;15.10;93.10
73572;DHT22;61854;48.510;-2.770;2023-05-29T06:17:36;15.10;93.00
73572;DHT22;61854;48.510;-2.770;2023-05-29T06:20:01;15.10;93.10
73572;DHT22;61854;48.510;-2.770;2023-05-29T06:22:27;15.10;93.00
73572;DHT22;61854;48.510;-2.770;2023-05-29T06:24:52;15.20;93.00
73572;DHT22;61854;48.510;-2.770;2023-05-29T06:27:18;15.20;92.80
73572;DHT22;61854;48.510;-2.770;2023-05-29T06:29:45;15.30;92.60
73572;DHT22;61854;48.510;-2.770;2023-05-29T06:32:10;15.30;92.30
73572;DHT22;61854;48.510;-2.770;2023-05-29T06:34:36;15.30;92.40
73572;DHT22;61854;48.510;-2.770;2023-05-29T06:37:01;15.30;92.40
73572;DHT22;61854;48.510;-2.770;2023-05-29T06:39:27;15.30;92.40
73572;DHT22;61854;48.510;-2.770;2023-05-29T06:41:52;15.40;92.30
73572;DHT22;61854;48.510;-2.770;2023-05-29T06:44:18;15.40;92.30
73572;DHT22;61854;48.510;-2.770;2023-05-29T06:46:43;15.40;92.20
73572;DHT22;61854;48.510;-2.770;2023-05-29T06:49:09;15.40;92.30
73572;DHT22;61854;48.510;-2.770;2023-05-29T06:51:34;15.50;92.30
73572;DHT22;61854;48.510;-2.770;2023-05-29T06:54:00;15.50;92.00
73572;DHT22;61854;48.510;-2.770;2023-05-29T06:56:26;15.40;91.80
73572;DHT22;61854;48.510;-2.770;2023-05-29T06:58:52;15.50;91.70
73572;DHT22;61854;48.510;-2.770;2023-05-29T07:01:18;15.40;91.70
73572;DHT22;61854;48.510;-2.770;2023-05-29T07:03:43;15.40;91.90
73572;DHT22;61854;48.510;-2.770;2023-05-29T07:06:09;15.30;92.00
73572;DHT22;61854;48.510;-2.770;2023-05-29T07:08:35;15.30;92.10
73572;DHT22;61854;48.510;-2.770;2023-05-29T07:11:01;15.30;92.10
73572;DHT22;61854;48.510;-2.770;2023-05-29T07:13:26;15.30;92.20
73572;DHT22;61854;48.510;-2.770;2023-05-29T07:15:52;15.30;92.10
73572;DHT22;61854;48.510;-2.770;2023-05-29T07:18:18;15.30;92.10
73572;DHT22;61854;48.510;-2.770;2023-05-29T07:20:43;15.30;92.20
73572;DHT22;61854;48.510;-2.770;2023-05-29T07:23:09;15.30;92.30
73572;DHT22;61854;48.510;-2.770;2023-05-29T07:25:34;15.40;92.30
73572;DHT22;61854;48.510;-2.770;2023-05-29T07:28:00;15.40;92.20
73572;DHT22;61854;48.510;-2.770;2023-05-29T07:30:25;15.50;91.90
73572;DHT22;61854;48.510;-2.770;2023-05-29T07:32:51;15.50;92.00
73572;DHT22;61854;48.510;-2.770;2023-05-29T07:35:16;15.50;92.50
73572;DHT22;61854;48.510;-2.770;2023-05-29T07:37:42;15.50;92.10
73572;DHT22;61854;48.510;-2.770;2023-05-29T07:40:08;15.40;92.00
73572;DHT22;61854;48.510;-2.770;2023-05-29T07:42:34;15.40;91.80
73572;DHT22;61854;48.510;-2.770;2023-05-29T07:45:00;15.40;91.80
73572;DHT22;61854;48.510;-2.770;2023-05-29T07:47:25;15.40;91.80
73572;DHT22;61854;48.510;-2.770;2023-05-29T07:49:51;15.50;92.00
73572;DHT22;61854;48.510;-2.770;2023-05-29T07:52:17;15.60;91.90
73572;DHT22;61854;48.510;-2.770;2023-05-29T07:54:42;15.70;91.50
73572;DHT22;61854;48.510;-2.770;2023-05-29T07:57:08;15.70;91.50
73572;DHT22;61854;48.510;-2.770;2023-05-29T07:59:38;15.80;91.50
73572;DHT22;61854;48.510;-2.770;2023-05-29T08:02:06;15.80;91.50
73572;DHT22;61854;48.510;-2.770;2023-05-29T08:04:32;15.80;91.40
73572;DHT22;61854;48.510;-2.770;2023-05-29T08:06:58;15.80;91.30
73572;DHT22;61854;48.510;-2.770;2023-05-29T08:09:24;15.70;91.30
73572;DHT22;61854;48.510;-2.770;2023-05-29T08:11:49;15.80;91.30
73572;DHT22;61854;48.510;-2.770;2023-05-29T08:14:15;15.80;91.20
73572;DHT22;61854;48.510;-2.770;2023-05-29T08:16:41;15.80;91.10
73572;DHT22;61854;48.510;-2.770;2023-05-29T08:19:07;15.80;91.10
73572;DHT22;61854;48.510;-2.770;2023-05-29T08:21:32;15.80;90.90
73572;DHT22;61854;48.510;-2.770;2023-05-29T08:23:58;15.80;91.00
73572;DHT22;61854;48.510;-2.770;2023-05-29T08:26:23;15.70;91.10
73572;DHT22;61854;48.510;-2.770;2023-05-29T08:28:49;15.70;91.20
73572;DHT22;61854;48.510;-2.770;2023-05-29T08:31:15;15.70;91.20
73572;DHT22;61854;48.510;-2.770;2023-05-29T08:33:41;15.70;91.30
73572;DHT22;61854;48.510;-2.770;2023-05-29T08:36:06;15.70;91.20
73572;DHT22;61854;48.510;-2.770;2023-05-29T08:38:32;15.70;91.10
73572;DHT22;61854;48.510;-2.770;2023-05-29T08:40:57;15.70;91.00
73572;DHT22;61854;48.510;-2.770;2023-05-29T08:43:24;15.80;91.00
73572;DHT22;61854;48.510;-2.770;2023-05-29T08:45:54;15.80;91.00
73572;DHT22;61854;48.510;-2.770;2023-05-29T08:48:23;15.80;90.80
73572;DHT22;61854;48.510;-2.770;2023-05-29T08:50:52;15.80;90.70
73572;DHT22;61854;48.510;-2.770;2023-05-29T08:53:18;15.90;90.60
73572;DHT22;61854;48.510;-2.770;2023-05-29T08:55:44;15.80;90.80
73572;DHT22;61854;48.510;-2.770;2023-05-29T08:58:13;15.80;90.80
73572;DHT22;61854;48.510;-2.770;2023-05-29T09:00:39;15.90;90.80
73572;DHT22;61854;48.510;-2.770;2023-05-29T09:03:06;16.00;90.30
73572;DHT22;61854;48.510;-2.770;2023-05-29T09:05:32;16.00;90.20
73572;DHT22;61854;48.510;-2.770;2023-05-29T09:07:58;16.10;90.30
73572;DHT22;61854;48.510;-2.770;2023-05-29T09:10:24;16.10;89.80
73572;DHT22;61854;48.510;-2.770;2023-05-29T09:12:51;16.30;89.50
73572;DHT22;61854;48.510;-2.770;2023-05-29T09:17:43;16.30;89.30
73572;DHT22;61854;48.510;-2.770;2023-05-29T09:20:14;16.40;88.80
73572;DHT22;61854;48.510;-2.770;2023-05-29T09:22:42;16.40;88.40
73572;DHT22;61854;48.510;-2.770;2023-05-29T09:25:08;16.40;88.70
73572;DHT22;61854;48.510;-2.770;2023-05-29T09:27:38;16.40;88.70
73572;DHT22;61854;48.510;-2.770;2023-05-29T09:30:03;16.40;87.40
73572;DHT22;61854;48.510;-2.770;2023-05-29T09:32:31;16.30;87.00
73572;DHT22;61854;48.510;-2.770;2023-05-29T09:34:59;16.30;87.50
73572;DHT22;61854;48.510;-2.770;2023-05-29T09:37:25;16.40;87.60
73572;DHT22;61854;48.510;-2.770;2023-05-29T09:39:50;16.40;86.80
73572;DHT22;61854;48.510;-2.770;2023-05-29T09:42:19;16.50;86.80
73572;DHT22;61854;48.510;-2.770;2023-05-29T09:44:46;16.40;87.20
73572;DHT22;61854;48.510;-2.770;2023-05-29T09:47:14;16.50;86.70
73572;DHT22;61854;48.510;-2.770;2023-05-29T09:49:40;16.50;87.10
73572;DHT22;61854;48.510;-2.770;2023-05-29T09:52:06;16.60;87.00
73572;DHT22;61854;48.510;-2.770;2023-05-29T09:54:34;16.60;86.40
73572;DHT22;61854;48.510;-2.770;2023-05-29T09:57:00;16.60;86.90
73572;DHT22;61854;48.510;-2.770;2023-05-29T09:59:26;16.70;85.90
73572;DHT22;61854;48.510;-2.770;2023-05-29T10:02:03;16.70;85.30
73572;DHT22;61854;48.510;-2.770;2023-05-29T10:04:29;16.80;85.30
73572;DHT22;61854;48.510;-2.770;2023-05-29T10:06:55;16.80;85.20
73572;DHT22;61854;48.510;-2.770;2023-05-29T10:09:22;16.90;86.40
73572;DHT22;61854;48.510;-2.770;2023-05-29T10:11:49;16.90;85.20
73572;DHT22;61854;48.510;-2.770;2023-05-29T10:14:17;16.90;85.10
73572;DHT22;61854;48.510;-2.770;2023-05-29T10:16:43;17.00;84.20
73572;DHT22;61854;48.510;-2.770;2023-05-29T10:19:12;17.10;84.40
73572;DHT22;61854;48.510;-2.770;2023-05-29T10:21:37;17.10;84.10
73572;DHT22;61854;48.510;-2.770;2023-05-29T10:24:05;17.10;84.00
73572;DHT22;61854;48.510;-2.770;2023-05-29T10:26:31;17.10;84.20
73572;DHT22;61854;48.510;-2.770;2023-05-29T10:29:08;17.10;84.50
73572;DHT22;61854;48.510;-2.770;2023-05-29T10:39:39;17.20;83.70
73572;DHT22;61854;48.510;-2.770;2023-05-29T10:42:27;17.30;82.50
73572;DHT22;61854;48.510;-2.770;2023-05-29T10:44:50;17.30;82.40
73572;DHT22;61854;48.510;-2.770;2023-05-29T10:47:22;17.30;82.70
73572;DHT22;61854;48.510;-2.770;2023-05-29T10:49:51;17.20;82.60
73572;DHT22;61854;48.510;-2.770;2023-05-29T10:52:18;17.10;83.80
73572;DHT22;61854;48.510;-2.770;2023-05-29T10:54:50;17.10;83.60
73572;DHT22;61854;48.510;-2.770;2023-05-29T10:57:16;17.10;83.40
73572;DHT22;61854;48.510;-2.770;2023-05-29T10:59:42;17.00;83.70
73572;DHT22;61854;48.510;-2.770;2023-05-29T11:02:09;17.00;83.90
73572;DHT22;61854;48.510;-2.770;2023-05-29T11:04:35;16.90;83.20
73572;DHT22;61854;48.510;-2.770;2023-05-29T11:07:02;16.90;84.00
73572;DHT22;61854;48.510;-2.770;2023-05-29T11:09:32;16.90;83.90
73572;DHT22;61854;48.510;-2.770;2023-05-29T11:15:00;16.90;84.90
73572;DHT22;61854;48.510;-2.770;2023-05-29T11:17:30;16.90;84.80
73572;DHT22;61854;48.510;-2.770;2023-05-29T11:19:56;16.90;84.70
73572;DHT22;61854;48.510;-2.770;2023-05-29T11:22:23;17.00;84.20
73572;DHT22;61854;48.510;-2.770;2023-05-29T11:24:51;17.10;83.90
73572;DHT22;61854;48.510;-2.770;2023-05-29T11:27:18;17.20;82.90
73572;DHT22;61854;48.510;-2.770;2023-05-29T11:29:44;17.20;83.10
73572;DHT22;61854;48.510;-2.770;2023-05-29T11:32:12;17.30;82.30
73572;DHT22;61854;48.510;-2.770;2023-05-29T11:34:40;17.40;82.30
73572;DHT22;61854;48.510;-2.770;2023-05-29T11:37:06;17.50;81.40
73572;DHT22;61854;48.510;-2.770;2023-05-29T11:39:35;17.70;81.20
73572;DHT22;61854;48.510;-2.770;2023-05-29T11:42:01;17.70;80.70
73572;DHT22;61854;48.510;-2.770;2023-05-29T11:44:27;17.60;81.10
73572;DHT22;61854;48.510;-2.770;2023-05-29T11:47:02;17.70;81.10
73572;DHT22;61854;48.510;-2.770;2023-05-29T11:49:31;17.70;80.50
73572;DHT22;61854;48.510;-2.770;2023-05-29T11:52:05;17.70;80.80
73572;DHT22;61854;48.510;-2.770;2023-05-29T11:54:32;17.80;80.30
73572;DHT22;61854;48.510;-2.770;2023-05-29T11:56:58;17.90;80.00
73572;DHT22;61854;48.510;-2.770;2023-05-29T11:59:28;17.90;79.60
73572;DHT22;61854;48.510;-2.770;2023-05-29T12:01:53;18.00;78.90
73572;DHT22;61854;48.510;-2.770;2023-05-29T12:04:19;18.10;78.40
73572;DHT22;61854;48.510;-2.770;2023-05-29T12:06:44;18.20;78.20
73572;DHT22;61854;48.510;-2.770;2023-05-29T12:09:22;18.30;77.80
73572;DHT22;61854;48.510;-2.770;2023-05-29T12:11:49;18.40;77.50
73572;DHT22;61854;48.510;-2.770;2023-05-29T12:14:14;18.30;77.70
73572;DHT22;61854;48.510;-2.770;2023-05-29T12:16:40;18.20;77.80
73572;DHT22;61854;48.510;-2.770;2023-05-29T12:19:05;18.10;77.70
73572;DHT22;61854;48.510;-2.770;2023-05-29T12:21:31;18.10;78.30
73572;DHT22;61854;48.510;-2.770;2023-05-29T12:23:57;18.10;78.50
73572;DHT22;61854;48.510;-2.770;2023-05-29T12:26:23;18.20;78.10
73572;DHT22;61854;48.510;-2.770;2023-05-29T12:28:50;18.10;78.00
73572;DHT22;61854;48.510;-2.770;2023-05-29T12:31:28;18.00;78.50
73572;DHT22;61854;48.510;-2.770;2023-05-29T12:33:57;18.00;78.30
73572;DHT22;61854;48.510;-2.770;2023-05-29T12:36:25;18.10;78.00
73572;DHT22;61854;48.510;-2.770;2023-05-29T12:38:51;18.10;78.50
73572;DHT22;61854;48.510;-2.770;2023-05-29T12:41:38;18.10;78.40
73572;DHT22;61854;48.510;-2.770;2023-05-29T12:44:04;18.20;77.60
73572;DHT22;61854;48.510;-2.770;2023-05-29T12:46:37;18.30;77.10
73572;DHT22;61854;48.510;-2.770;2023-05-29T12:49:11;18.30;76.80
73572;DHT22;61854;48.510;-2.770;2023-05-29T12:51:39;18.20;77.60
73572;DHT22;61854;48.510;-2.770;2023-05-29T12:54:05;18.20;76.90
73572;DHT22;61854;48.510;-2.770;2023-05-29T12:56:30;18.30;77.30
73572;DHT22;61854;48.510;-2.770;2023-05-29T12:58:56;18.50;77.50
73572;DHT22;61854;48.510;-2.770;2023-05-29T13:01:21;18.60;76.70
73572;DHT22;61854;48.510;-2.770;2023-05-29T13:03:48;18.70;76.20
73572;DHT22;61854;48.510;-2.770;2023-05-29T13:06:14;18.80;75.20
73572;DHT22;61854;48.510;-2.770;2023-05-29T13:08:40;19.10;74.80
73572;DHT22;61854;48.510;-2.770;2023-05-29T13:11:05;19.20;73.40
73572;DHT22;61854;48.510;-2.770;2023-05-29T13:13:31;19.10;74.00
73572;DHT22;61854;48.510;-2.770;2023-05-29T13:15:56;19.20;73.80
73572;DHT22;61854;48.510;-2.770;2023-05-29T13:18:22;19.30;72.70
73572;DHT22;61854;48.510;-2.770;2023-05-29T13:20:47;19.30;72.80
73572;DHT22;61854;48.510;-2.770;2023-05-29T13:23:13;19.40;72.10
73572;DHT22;61854;48.510;-2.770;2023-05-29T13:25:38;19.40;71.30
73572;DHT22;61854;48.510;-2.770;2023-05-29T13:28:04;19.40;71.30
73572;DHT22;61854;48.510;-2.770;2023-05-29T13:30:29;19.20;71.80
73572;DHT22;61854;48.510;-2.770;2023-05-29T13:32:55;19.20;72.70
73572;DHT22;61854;48.510;-2.770;2023-05-29T13:35:20;19.40;71.70
73572;DHT22;61854;48.510;-2.770;2023-05-29T13:37:46;19.40;71.20
73572;DHT22;61854;48.510;-2.770;2023-05-29T13:40:12;19.40;70.80
73572;DHT22;61854;48.510;-2.770;2023-05-29T13:42:39;19.40;71.20
73572;DHT22;61854;48.510;-2.770;2023-05-29T13:45:04;19.10;71.90
73572;DHT22;61854;48.510;-2.770;2023-05-29T13:47:31;19.00;72.80
73572;DHT22;61854;48.510;-2.770;2023-05-29T13:49:57;18.90;73.30
73572;DHT22;61854;48.510;-2.770;2023-05-29T13:52:23;18.80;73.80
73572;DHT22;61854;48.510;-2.770;2023-05-29T13:54:49;18.80;74.60
73572;DHT22;61854;48.510;-2.770;2023-05-29T13:57:15;18.90;73.30
73572;DHT22;61854;48.510;-2.770;2023-05-29T13:59:40;18.70;74.00
73572;DHT22;61854;48.510;-2.770;2023-05-29T14:02:06;18.50;75.20
73572;DHT22;61854;48.510;-2.770;2023-05-29T14:04:33;18.70;74.70
73572;DHT22;61854;48.510;-2.770;2023-05-29T14:06:59;18.70;74.80
73572;DHT22;61854;48.510;-2.770;2023-05-29T14:09:24;19.00;74.00
73572;DHT22;61854;48.510;-2.770;2023-05-29T14:11:56;19.10;73.00
73572;DHT22;61854;48.510;-2.770;2023-05-29T14:14:22;19.20;72.20
73572;DHT22;61854;48.510;-2.770;2023-05-29T14:16:48;19.20;71.80
73572;DHT22;61854;48.510;-2.770;2023-05-29T14:19:13;18.90;72.70
73572;DHT22;61854;48.510;-2.770;2023-05-29T14:21:39;18.90;74.00
73572;DHT22;61854;48.510;-2.770;2023-05-29T14:24:04;18.80;74.10
73572;DHT22;61854;48.510;-2.770;2023-05-29T14:26:30;18.60;74.40
73572;DHT22;61854;48.510;-2.770;2023-05-29T14:28:55;18.40;74.90
73572;DHT22;61854;48.510;-2.770;2023-05-29T14:31:21;18.30;75.80
73572;DHT22;61854;48.510;-2.770;2023-05-29T14:33:47;18.30;76.30
73572;DHT22;61854;48.510;-2.770;2023-05-29T14:36:12;18.20;76.50
73572;DHT22;61854;48.510;-2.770;2023-05-29T14:38:38;18.20;75.80
73572;DHT22;61854;48.510;-2.770;2023-05-29T14:41:03;18.20;76.10
73572;DHT22;61854;48.510;-2.770;2023-05-29T14:43:29;18.40;75.80
73572;DHT22;61854;48.510;-2.770;2023-05-29T14:45:54;18.50;75.20
73572;DHT22;61854;48.510;-2.770;2023-05-29T14:48:20;18.30;75.70
73572;DHT22;61854;48.510;-2.770;2023-05-29T14:50:46;18.40;76.20
73572;DHT22;61854;48.510;-2.770;2023-05-29T14:53:11;18.40;75.20
73572;DHT22;61854;48.510;-2.770;2023-05-29T14:55:37;18.40;75.50
73572;DHT22;61854;48.510;-2.770;2023-05-29T14:58:03;18.30;75.70
73572;DHT22;61854;48.510;-2.770;2023-05-29T15:00:28;18.20;76.60
73572;DHT22;61854;48.510;-2.770;2023-05-29T15:02:54;18.10;76.80
73572;DHT22;61854;48.510;-2.770;2023-05-29T15:05:22;18.20;76.90
73572;DHT22;61854;48.510;-2.770;2023-05-29T15:07:47;18.20;76.40
73572;DHT22;61854;48.510;-2.770;2023-05-29T15:10:13;18.30;76.90
73572;DHT22;61854;48.510;-2.770;2023-05-29T15:12:38;18.20;76.80
73572;DHT22;61854;48.510;-2.770;2023-05-29T15:15:04;18.50;75.70
73572;DHT22;61854;48.510;-2.770;2023-05-29T15:17:30;18.60;75.00
73572;DHT22;61854;48.510;-2.770;2023-05-29T15:19:56;18.50;74.30
73572;DHT22;61854;48.510;-2.770;2023-05-29T15:22:21;18.70;73.40
73572;DHT22;61854;48.510;-2.770;2023-05-29T15:24:47;19.00;73.10
73572;DHT22;61854;48.510;-2.770;2023-05-29T15:27:13;19.30;72.70
73572;DHT22;61854;48.510;-2.770;2023-05-29T15:29:41;19.70;71.00
73572;DHT22;61854;48.510;-2.770;2023-05-29T15:32:06;19.80;68.90